Time,TemperatureF,DewpointF,PressureIn,WindDirection,WindDirectionDegrees,WindSpeedMPH,WindSpeedGustMPH,Humidity,HourlyPrecipIn,Conditions,Clouds,dailyrainin,SoftwareType,DateUTC
2013-05-07 00:12:00,42.0,41.0,30.00,WSW,255,0.0,1.0,96,0.00,,,0.00,weatherlink.com 1.10,2013-05-07 04:12:00,
2013-05-07 00:28:00,41.8,41.0,30.00,WSW,255,0.0,0.0,96,0.00,,,0.00,weatherlink.com 1.10,2013-05-07 04:28:00,
2013-05-07 00:43:00,41.6,41.0,30.00,WSW,255,0.0,0.0,96,0.00,,,0.00,weatherlink.com 1.10,2013-05-07 04:43:00,
2013-05-07 00:58:00,41.2,40.0,30.00,WSW,255,0.0,0.0,97,0.00,,,0.00,weatherlink.com 1.10,2013-05-07 04:58:00,
2013-05-07 01:13:00,41.1,40.0,29.99,WSW,255,0.0,0.0,97,0.00,,,0.00,weatherlink.com 1.10,2013-05-07 05:13:00,
2013-05-07 01:28:00,40.9,40.0,29.99,WSW,255,0.0,0.0,97,0.00,,,0.00,weatherlink.com 1.10,2013-05-07 05:28:00,
2013-05-07 01:43:00,40.9,40.0,29.99,WSW,255,0.0,0.0,97,0.00,,,0.00,weatherlink.com 1.10,2013-05-07 05:43:00,
2013-05-07 01:58:00,41.1,40.0,29.99,WSW,255,0.0,0.0,97,0.00,,,0.00,weatherlink.com 1.10,2013-05-07 05:58:00,
2013-05-07 02:13:00,41.4,41.0,29.99,West,271,0.0,1.0,98,0.00,,,0.00,weatherlink.com 1.10,2013-05-07 06:13:00,
2013-05-07 02:28:00,41.5,41.0,29.99,WSW,250,0.0,0.0,97,0.00,,,0.00,weatherlink.com 1.10,2013-05-07 06:28:00,
2013-05-07 02:43:00,41.9,41.0,29.98,WSW,250,0.0,0.0,97,0.00,,,0.00,weatherlink.com 1.10,2013-05-07 06:43:00,
2013-05-07 02:58:00,42.2,41.0,29.99,SE,126,0.0,1.0,97,0.00,,,0.00,weatherlink.com 1.10,2013-05-07 06:58:00,
2013-05-07 03:13:00,42.0,41.0,29.98,NW,309,0.0,1.0,97,0.00,,,0.00,weatherlink.com 1.10,2013-05-07 07:13:00,
2013-05-07 03:28:00,41.9,41.0,29.98,West,265,0.0,1.0,97,0.00,,,0.00,weatherlink.com 1.10,2013-05-07 07:28:00,
2013-05-07 03:43:00,41.6,41.0,29.98,WSW,248,0.0,1.0,97,0.00,,,0.00,weatherlink.com 1.10,2013-05-07 07:43:00,
2013-05-07 03:58:00,41.1,40.0,29.98,NW,307,0.0,1.0,97,0.00,,,0.00,weatherlink.com 1.10,2013-05-07 07:58:00,
2013-05-07 04:13:00,40.7,40.0,29.98,West,261,0.0,1.0,97,0.00,,,0.00,weatherlink.com 1.10,2013-05-07 08:13:00,
2013-05-07 04:28:00,40.4,40.0,29.98,West,280,0.0,1.0,97,0.00,,,0.00,weatherlink.com 1.10,2013-05-07 08:28:00,
2013-05-07 04:43:00,40.3,40.0,29.98,WNW,284,0.0,1.0,97,0.00,,,0.00,weatherlink.com 1.10,2013-05-07 08:43:00,
2013-05-07 04:58:00,40.0,39.0,29.97,West,271,0.0,1.0,97,0.00,,,0.00,weatherlink.com 1.10,2013-05-07 08:58:00,
2013-05-07 05:13:00,40.0,39.0,29.98,West,265,0.0,0.0,97,0.00,,,0.00,weatherlink.com 1.10,2013-05-07 09:13:00,
2013-05-07 05:28:00,39.8,39.0,29.98,West,278,0.0,1.0,97,0.00,,,0.00,weatherlink.com 1.10,2013-05-07 09:28:00,
2013-05-07 05:43:00,39.5,39.0,29.98,West,273,0.0,1.0,98,0.00,,,0.00,weatherlink.com 1.10,2013-05-07 09:43:00,
2013-05-07 05:58:00,39.2,39.0,29.98,West,278,0.0,1.0,98,0.00,,,0.00,weatherlink.com 1.10,2013-05-07 09:58:00,
2013-05-07 06:13:00,39.3,39.0,29.98,WNW,283,0.0,1.0,98,0.00,,,0.00,weatherlink.com 1.10,2013-05-07 10:13:00,
2013-05-07 06:28:00,39.3,39.0,29.99,West,278,0.0,1.0,98,0.00,,,0.00,weatherlink.com 1.10,2013-05-07 10:28:00,
2013-05-07 06:43:00,39.6,39.0,30.00,SW,233,0.0,0.0,98,0.00,,,0.00,weatherlink.com 1.10,2013-05-07 10:43:00,
2013-05-07 06:58:00,39.2,39.0,30.00,NNW,330,0.0,1.0,98,0.00,,,0.00,weatherlink.com 1.10,2013-05-07 10:58:00,
2013-05-07 07:13:00,39.1,39.0,30.00,NW,308,0.0,0.0,98,0.00,,,0.00,weatherlink.com 1.10,2013-05-07 11:13:00,
2013-05-07 07:28:00,39.1,39.0,30.01,NE,37,0.0,1.0,98,0.00,,,0.00,weatherlink.com 1.10,2013-05-07 11:28:00,
2013-05-07 07:43:00,39.3,39.0,30.01,WNW,300,0.0,1.0,98,0.00,,,0.00,weatherlink.com 1.10,2013-05-07 11:43:00,
2013-05-07 07:58:00,39.5,39.0,30.01,West,261,0.0,1.0,98,0.00,,,0.00,weatherlink.com 1.10,2013-05-07 11:58:00,
2013-05-07 08:13:00,39.9,39.0,30.02,WNW,293,0.0,1.0,98,0.00,,,0.00,weatherlink.com 1.10,2013-05-07 12:13:00,
2013-05-07 08:28:00,40.4,40.0,30.02,West,263,0.0,1.0,98,0.00,,,0.00,weatherlink.com 1.10,2013-05-07 12:28:00,
2013-05-07 08:43:00,41.2,40.0,30.03,West,269,0.0,1.0,97,0.00,,,0.00,weatherlink.com 1.10,2013-05-07 12:43:00,
2013-05-07 08:58:00,42.7,42.0,30.03,SSE,159,0.0,1.0,97,0.00,,,0.00,weatherlink.com 1.10,2013-05-07 12:58:00,
2013-05-07 09:13:00,45.5,43.0,30.03,SE,132,0.0,2.0,91,0.00,,,0.00,weatherlink.com 1.10,2013-05-07 13:13:00,
2013-05-07 09:28:00,48.6,45.0,30.03,SE,132,1.0,2.0,87,0.00,,,0.00,weatherlink.com 1.10,2013-05-07 13:28:00,
2013-05-07 09:43:00,50.8,47.0,30.02,South,180,1.0,3.0,85,0.00,,,0.00,weatherlink.com 1.10,2013-05-07 13:43:00,
2013-05-07 09:59:00,52.6,47.0,30.02,SE,143,0.0,3.0,82,0.00,,,0.00,weatherlink.com 1.10,2013-05-07 13:59:00,
2013-05-07 10:14:00,54.3,48.0,30.02,SE,138,4.0,4.0,80,0.00,,,0.00,weatherlink.com 1.10,2013-05-07 14:14:00,
2013-05-07 10:29:00,56.9,49.0,30.02,East,98,0.0,3.0,76,0.00,,,0.00,weatherlink.com 1.10,2013-05-07 14:29:00,
2013-05-07 10:44:00,57.8,49.0,30.01,ESE,121,1.0,3.0,72,0.00,,,0.00,weatherlink.com 1.10,2013-05-07 14:44:00,
2013-05-07 10:59:00,59.9,49.0,30.01,NW,324,0.0,3.0,67,0.00,,,0.00,weatherlink.com 1.10,2013-05-07 14:59:00,
2013-05-07 11:14:00,61.4,47.0,30.01,SSE,152,1.0,6.0,59,0.00,,,0.00,weatherlink.com 1.10,2013-05-07 15:14:00,
2013-05-07 11:29:00,62.2,45.0,30.01,NW,309,0.0,5.0,54,0.00,,,0.00,weatherlink.com 1.10,2013-05-07 15:29:00,
2013-05-07 11:44:00,63.0,45.0,30.00,ENE,68,2.0,5.0,52,0.00,,,0.00,weatherlink.com 1.10,2013-05-07 15:44:00,
2013-05-07 11:59:00,63.3,45.0,30.00,SE,128,1.0,4.0,52,0.00,,,0.00,weatherlink.com 1.10,2013-05-07 15:59:00,
2013-05-07 12:14:00,62.4,45.0,30.00,SW,215,0.0,4.0,53,0.00,,,0.00,weatherlink.com 1.10,2013-05-07 16:14:00,
2013-05-07 12:29:00,63.5,44.0,30.00,SE,132,1.0,6.0,49,0.00,,,0.00,weatherlink.com 1.10,2013-05-07 16:29:00,
2013-05-07 12:44:00,65.0,46.0,29.99,East,84,2.0,5.0,51,0.00,,,0.00,weatherlink.com 1.10,2013-05-07 16:44:00,
2013-05-07 12:59:00,63.9,44.0,29.99,NE,55,0.0,4.0,48,0.00,,,0.00,weatherlink.com 1.10,2013-05-07 16:59:00,
2013-05-07 13:14:00,64.2,46.0,29.99,SE,132,4.0,4.0,51,0.00,,,0.00,weatherlink.com 1.10,2013-05-07 17:14:00,
2013-05-07 13:29:00,65.3,47.0,29.99,East,94,2.0,4.0,51,0.00,,,0.00,weatherlink.com 1.10,2013-05-07 17:29:00,
2013-05-07 13:44:00,65.4,43.0,29.99,West,272,1.0,5.0,45,0.00,,,0.00,weatherlink.com 1.10,2013-05-07 17:44:00,
2013-05-07 13:59:00,65.4,43.0,29.98,West,264,0.0,2.0,45,0.00,,,0.00,weatherlink.com 1.10,2013-05-07 17:59:00,
2013-05-07 14:14:00,64.8,44.0,29.98,West,280,4.0,6.0,47,0.00,,,0.00,weatherlink.com 1.10,2013-05-07 18:14:00,
2013-05-07 14:29:00,63.5,46.0,29.98,WSW,251,1.0,5.0,53,0.00,,,0.00,weatherlink.com 1.10,2013-05-07 18:29:00,
2013-05-07 14:44:00,63.0,45.0,29.98,WNW,291,2.0,6.0,53,0.00,,,0.00,weatherlink.com 1.10,2013-05-07 18:44:00,
2013-05-07 14:59:00,63.0,46.0,29.98,ENE,62,1.0,5.0,54,0.00,,,0.00,weatherlink.com 1.10,2013-05-07 18:59:00,
2013-05-07 15:14:00,64.0,45.0,29.97,WSW,257,3.0,5.0,51,0.00,,,0.00,weatherlink.com 1.10,2013-05-07 19:14:00,
2013-05-07 15:29:00,64.0,44.0,29.97,NNE,18,2.0,4.0,49,0.00,,,0.00,weatherlink.com 1.10,2013-05-07 19:29:00,
2013-05-07 15:44:00,64.0,45.0,29.97,SW,233,3.0,7.0,51,0.00,,,0.00,weatherlink.com 1.10,2013-05-07 19:44:00,
2013-05-07 15:59:00,63.0,47.0,29.97,WSW,257,2.0,3.0,56,0.00,,,0.00,weatherlink.com 1.10,2013-05-07 19:59:00,
2013-05-07 16:14:00,62.4,46.0,29.97,WNW,295,1.0,4.0,56,0.00,,,0.00,weatherlink.com 1.10,2013-05-07 20:14:00,
2013-05-07 16:29:00,62.3,46.0,29.97,WNW,302,1.0,4.0,56,0.00,,,0.00,weatherlink.com 1.10,2013-05-07 20:29:00,
2013-05-07 16:44:00,63.1,46.0,29.97,NW,324,2.0,5.0,54,0.00,,,0.00,weatherlink.com 1.10,2013-05-07 20:44:00,
2013-05-07 16:59:00,63.3,47.0,29.98,WNW,297,0.0,3.0,56,0.00,,,0.00,weatherlink.com 1.10,2013-05-07 20:59:00,
2013-05-07 17:14:00,63.2,47.0,29.98,WSW,249,0.0,3.0,55,0.00,,,0.00,weatherlink.com 1.10,2013-05-07 21:14:00,
2013-05-07 17:29:00,63.2,47.0,29.98,WNW,297,0.0,1.0,56,0.00,,,0.00,weatherlink.com 1.10,2013-05-07 21:29:00,
2013-05-07 17:44:00,62.8,48.0,29.99,SW,232,1.0,4.0,59,0.00,,,0.00,weatherlink.com 1.10,2013-05-07 21:44:00,
2013-05-07 17:59:00,60.6,49.0,29.99,WNW,285,0.0,4.0,65,0.00,,,0.00,weatherlink.com 1.10,2013-05-07 21:59:00,
2013-05-07 18:14:00,58.9,52.0,29.99,WNW,285,0.0,0.0,77,0.00,,,0.00,weatherlink.com 1.10,2013-05-07 22:14:00,
2013-05-07 18:29:00,59.0,50.0,29.99,East,86,0.0,1.0,73,0.00,,,0.00,weatherlink.com 1.10,2013-05-07 22:29:00,
2013-05-07 18:44:00,59.0,52.0,30.00,East,82,1.0,2.0,78,0.00,,,0.00,weatherlink.com 1.10,2013-05-07 22:44:00,
2013-05-07 18:59:00,58.6,51.0,30.00,SE,136,1.0,4.0,76,0.00,,,0.00,weatherlink.com 1.10,2013-05-07 22:59:00,
2013-05-07 19:14:00,58.2,50.0,30.01,SW,226,0.0,3.0,75,0.00,,,0.00,weatherlink.com 1.10,2013-05-07 23:14:00,
2013-05-07 19:29:00,57.6,50.0,30.02,East,83,0.0,3.0,77,0.00,,,0.00,weatherlink.com 1.10,2013-05-07 23:29:00,
2013-05-07 19:44:00,57.1,50.0,30.03,SSE,167,0.0,1.0,78,0.00,,,0.00,weatherlink.com 1.10,2013-05-07 23:44:00,
2013-05-07 19:59:00,56.7,51.0,30.03,ENE,68,0.0,1.0,80,0.00,,,0.00,weatherlink.com 1.10,2013-05-07 23:59:00,
2013-05-07 20:14:00,56.1,50.0,30.03,ENE,65,0.0,1.0,81,0.00,,,0.00,weatherlink.com 1.10,2013-05-08 00:14:00,
2013-05-07 20:29:00,55.9,50.0,30.04,ENE,66,0.0,0.0,81,0.00,,,0.00,weatherlink.com 1.10,2013-05-08 00:29:00,
2013-05-07 20:44:00,55.5,50.0,30.04,ENE,66,0.0,0.0,81,0.00,,,0.00,weatherlink.com 1.10,2013-05-08 00:44:00,
2013-05-07 20:59:00,54.9,50.0,30.04,ENE,67,0.0,0.0,83,0.00,,,0.00,weatherlink.com 1.10,2013-05-08 00:59:00,
2013-05-07 21:14:00,54.4,50.0,30.04,ENE,67,0.0,0.0,86,0.00,,,0.00,weatherlink.com 1.10,2013-05-08 01:14:00,
2013-05-07 21:30:00,54.1,51.0,30.05,ENE,65,0.0,0.0,88,0.00,,,0.00,weatherlink.com 1.10,2013-05-08 01:30:00,
2013-05-07 21:45:00,53.6,51.0,30.05,ENE,65,0.0,1.0,89,0.00,,,0.00,weatherlink.com 1.10,2013-05-08 01:45:00,
2013-05-07 22:00:00,53.1,50.0,30.05,ENE,65,0.0,0.0,90,0.00,,,0.00,weatherlink.com 1.10,2013-05-08 02:00:00,
2013-05-07 22:15:00,52.4,50.0,30.06,ENE,65,0.0,0.0,91,0.00,,,0.00,weatherlink.com 1.10,2013-05-08 02:15:00,
2013-05-07 22:30:00,52.0,50.0,30.06,ENE,65,0.0,0.0,92,0.00,,,0.00,weatherlink.com 1.10,2013-05-08 02:30:00,
2013-05-07 22:45:00,51.5,50.0,30.06,ENE,65,0.0,0.0,93,0.00,,,0.00,weatherlink.com 1.10,2013-05-08 02:45:00,
2013-05-07 23:00:00,51.0,49.0,30.06,ENE,65,0.0,0.0,93,0.00,,,0.00,weatherlink.com 1.10,2013-05-08 03:00:00,
2013-05-07 23:15:00,50.8,49.0,30.05,ENE,65,0.0,0.0,94,0.00,,,0.00,weatherlink.com 1.10,2013-05-08 03:15:00,
2013-05-07 23:30:00,50.8,50.0,30.05,ENE,65,0.0,0.0,95,0.00,,,0.00,weatherlink.com 1.10,2013-05-08 03:30:00,
2013-05-07 23:45:00,50.4,49.0,30.05,ENE,65,0.0,0.0,95,0.00,,,0.00,weatherlink.com 1.10,2013-05-08 03:45:00,